createdAt,value
2023-02-28T00:03:17.920Z,4.37
2023-02-28T00:07:22.333Z,4.63
2023-02-28T00:11:25.574Z,4.30
2023-02-28T00:15:28.760Z,4.57
2023-02-28T00:19:31.934Z,5.37
2023-02-28T00:23:36.875Z,4.00
2023-02-28T00:27:41.725Z,4.73
2023-02-28T00:31:45.088Z,4.63
2023-02-28T00:35:49.641Z,4.47
2023-02-28T00:39:55.322Z,5.33
2023-02-28T00:43:59.117Z,4.33
2023-02-28T00:48:02.128Z,5.00
2023-02-28T00:52:05.687Z,5.53
2023-02-28T00:56:10.212Z,5.23
2023-02-28T01:00:14.578Z,5.17
2023-02-28T01:04:19.916Z,5.20
2023-02-28T01:08:23.452Z,5.30
2023-02-28T01:12:30.823Z,5.00
2023-02-28T01:16:34.139Z,5.60
2023-02-28T01:20:39.222Z,5.37
2023-02-28T01:24:42.261Z,5.27
2023-02-28T01:28:52.025Z,5.10
2023-02-28T01:32:55.445Z,4.67
2023-02-28T01:36:59.798Z,5.57
2023-02-28T01:41:03.385Z,5.07
2023-02-28T01:45:22.417Z,5.47
2023-02-28T01:49:25.537Z,5.00
2023-02-28T01:53:34.591Z,5.50
2023-02-28T01:57:43.667Z,4.70
2023-02-28T02:01:48.215Z,5.10
2023-02-28T02:05:51.539Z,5.13
2023-02-28T02:10:03.258Z,4.90
2023-02-28T02:14:42.303Z,5.40
2023-02-28T02:18:52.617Z,5.50
2023-02-28T02:23:27.954Z,5.30
2023-02-28T02:28:03.334Z,5.20
2023-02-28T02:32:24.796Z,5.60
2023-02-28T02:36:35.354Z,4.60
2023-02-28T02:40:44.614Z,5.57
2023-02-28T02:44:52.238Z,5.23
2023-02-28T02:48:59.050Z,5.07
2023-02-28T02:53:06.302Z,4.83
2023-02-28T02:57:15.803Z,5.03
2023-02-28T03:01:29.426Z,5.47
2023-02-28T03:05:40.394Z,5.50
2023-02-28T03:09:52.686Z,5.60
2023-02-28T03:14:17.700Z,5.47
2023-02-28T03:18:27.337Z,5.30
2023-02-28T03:22:50.593Z,5.47
2023-02-28T03:27:01.519Z,5.47
2023-02-28T03:31:13.091Z,5.17
2023-02-28T03:35:22.891Z,5.67
2023-02-28T03:39:31.976Z,5.77
2023-02-28T03:43:53.004Z,5.67
2023-02-28T03:47:59.770Z,5.90
2023-02-28T03:52:06.203Z,5.70
2023-02-28T03:56:15.572Z,5.70
2023-02-28T04:00:23.467Z,4.80
2023-02-28T04:04:27.084Z,5.30
2023-02-28T04:08:30.107Z,4.90
2023-02-28T04:12:33.159Z,5.20
2023-02-28T04:16:39.948Z,5.70
2023-02-28T04:20:43.115Z,4.60
2023-02-28T04:24:46.270Z,5.47
2023-02-28T04:28:49.402Z,5.90
2023-02-28T04:32:53.802Z,5.20
2023-02-28T04:37:12.445Z,5.43
2023-02-28T04:41:16.732Z,6.23
2023-02-28T04:45:19.778Z,5.33
2023-02-28T04:49:24.239Z,5.20
2023-02-28T04:53:27.358Z,5.63
2023-02-28T04:57:31.039Z,5.67
2023-02-28T05:01:37.376Z,6.07
2023-02-28T05:05:41.756Z,5.40
2023-02-28T05:09:44.824Z,5.53
2023-02-28T05:13:48.357Z,5.90
2023-02-28T05:17:51.459Z,5.57
2023-02-28T05:21:57.520Z,5.83
2023-02-28T05:26:00.796Z,6.00
2023-02-28T05:30:20.427Z,5.70
2023-02-28T05:34:24.024Z,5.43
2023-02-28T05:38:28.557Z,6.07
2023-02-28T05:42:31.840Z,5.60
2023-02-28T05:46:34.938Z,5.60
2023-02-28T05:50:38.064Z,5.67
2023-02-28T05:54:42.569Z,6.70
2023-02-28T05:58:45.664Z,5.80
2023-02-28T06:02:48.669Z,5.67
2023-02-28T06:06:52.240Z,5.90
2023-02-28T06:10:56.578Z,6.50
2023-02-28T06:14:59.676Z,6.80
2023-02-28T06:19:05.762Z,6.13
2023-02-28T06:23:09.082Z,6.53
2023-02-28T06:27:13.499Z,6.63
2023-02-28T06:31:19.266Z,6.23
2023-02-28T06:35:22.503Z,6.07
2023-02-28T06:39:25.893Z,6.30
2023-02-28T06:43:32.576Z,6.43
2023-02-28T06:47:35.714Z,6.57
2023-02-28T06:51:40.526Z,6.73
2023-02-28T06:55:43.626Z,6.73
2023-02-28T06:59:47.984Z,5.73
2023-02-28T07:03:53.365Z,7.37
2023-02-28T07:07:56.389Z,6.30
2023-02-28T07:12:00.182Z,6.80
2023-02-28T07:16:07.072Z,6.60
2023-02-28T07:20:11.184Z,6.53
2023-02-28T07:24:16.794Z,7.17
2023-02-28T07:28:19.901Z,6.13
2023-02-28T07:32:24.707Z,6.03
2023-02-28T07:36:28.100Z,6.83
2023-02-28T07:40:31.334Z,6.10
2023-02-28T07:44:34.705Z,7.10
2023-02-28T07:48:39.491Z,6.23
2023-02-28T07:52:43.029Z,6.70
2023-02-28T07:56:46.290Z,7.80
2023-02-28T08:00:49.481Z,6.70
2023-02-28T08:04:53.992Z,6.83
2023-02-28T08:08:57.998Z,7.07
2023-02-28T08:13:01.040Z,6.57
2023-02-28T08:17:04.492Z,7.50
2023-02-28T08:21:12.490Z,7.00
2023-02-28T08:25:15.875Z,6.87
2023-02-28T08:29:18.898Z,7.37
2023-02-28T08:33:22.110Z,7.03
2023-02-28T08:37:26.693Z,6.90
2023-02-28T08:41:30.267Z,7.43
2023-02-28T08:45:33.696Z,6.97
2023-02-28T08:49:36.840Z,7.20
2023-02-28T08:53:42.378Z,7.60
2023-02-28T08:57:45.442Z,7.23
2023-02-28T09:01:48.449Z,7.05
2023-02-28T09:05:55.972Z,7.05
2023-02-28T09:10:00.342Z,7.30
2023-02-28T09:14:04.742Z,6.63
2023-02-28T09:18:07.781Z,6.82
2023-02-28T09:22:11.899Z,7.43
2023-02-28T09:26:22.182Z,7.25
2023-02-28T09:30:25.331Z,7.30
2023-02-28T09:34:28.850Z,7.07
2023-02-28T09:38:32.081Z,7.03
2023-02-28T09:42:36.917Z,7.37
2023-02-28T09:46:44.978Z,7.38
2023-02-28T09:50:50.211Z,6.53
2023-02-28T09:54:53.317Z,7.57
2023-02-28T09:59:02.782Z,7.32
2023-02-28T10:03:32.324Z,7.70
2023-02-28T10:07:48.362Z,7.50
2023-02-28T10:11:56.033Z,8.55
2023-02-28T10:16:06.180Z,7.20
2023-02-28T10:20:15.237Z,7.53
2023-02-28T10:24:23.280Z,7.10
2023-02-28T10:28:27.565Z,7.65
2023-02-28T10:32:34.569Z,7.88
2023-02-28T10:36:37.710Z,7.45
2023-02-28T10:40:40.721Z,6.65
2023-02-28T10:44:43.997Z,6.93
2023-02-28T10:49:05.356Z,6.50
2023-02-28T10:53:26.949Z,6.10
2023-02-28T10:57:33.553Z,6.88
2023-02-28T11:01:39.677Z,6.15
2023-02-28T11:05:45.656Z,6.45
2023-02-28T11:09:51.455Z,6.53
2023-02-28T11:13:56.761Z,6.45
2023-02-28T11:18:02.806Z,6.78
2023-02-28T11:22:09.320Z,6.60
2023-02-28T11:26:12.680Z,6.35
2023-02-28T11:30:36.128Z,6.45
2023-02-28T11:34:40.536Z,6.30
2023-02-28T11:38:45.413Z,6.60
2023-02-28T11:42:59.722Z,7.32
2023-02-28T11:47:10.331Z,6.80
2023-02-28T11:51:22.142Z,7.43
2023-02-28T11:55:30.151Z,6.88
2023-02-28T11:59:50.101Z,6.95
2023-02-28T12:04:05.407Z,6.95
2023-02-28T12:08:25.301Z,6.63
2023-02-28T12:12:41.097Z,7.00
2023-02-28T12:17:02.091Z,6.82
2023-02-28T12:21:13.576Z,6.43
2023-02-28T12:25:48.075Z,6.40
2023-02-28T12:29:59.106Z,6.45
2023-02-28T12:34:07.174Z,6.47
2023-02-28T12:38:14.994Z,6.70
2023-02-28T12:42:25.222Z,6.57
2023-02-28T12:46:34.864Z,5.93
2023-02-28T12:50:39.418Z,6.38
2023-02-28T12:54:49.358Z,5.78
2023-02-28T12:58:56.930Z,5.45
2023-02-28T13:03:33.217Z,5.85
2023-02-28T13:07:58.224Z,6.10
2023-02-28T13:12:01.437Z,5.47
2023-02-28T13:16:08.002Z,5.53
2023-02-28T13:20:19.937Z,5.95
2023-02-28T13:24:45.777Z,5.05
2023-02-28T13:29:23.960Z,5.40
2023-02-28T13:33:30.172Z,5.35
2023-02-28T13:37:39.230Z,5.70
2023-02-28T13:41:52.765Z,5.20
2023-02-28T13:46:13.146Z,5.57
2023-02-28T13:50:23.148Z,5.45
2023-02-28T13:54:46.962Z,5.22
2023-02-28T13:58:57.121Z,5.68
2023-02-28T14:03:13.730Z,5.78
2023-02-28T14:07:24.351Z,5.32
2023-02-28T14:11:32.313Z,5.78
2023-02-28T14:15:58.889Z,6.40
2023-02-28T14:20:04.201Z,5.70
2023-02-28T14:24:33.168Z,5.75
2023-02-28T14:28:52.934Z,6.40
2023-02-28T14:33:12.775Z,5.30
2023-02-28T14:37:21.515Z,5.57
2023-02-28T14:41:30.778Z,5.32
2023-02-28T14:45:35.979Z,5.85
2023-02-28T14:49:46.605Z,5.75
2023-02-28T14:53:52.917Z,5.47
2023-02-28T14:57:58.166Z,5.40
2023-02-28T15:02:23.238Z,5.07
2023-02-28T15:06:29.004Z,5.85
2023-02-28T15:10:34.272Z,6.00
2023-02-28T15:14:40.011Z,5.70
2023-02-28T15:18:49.148Z,5.13
2023-02-28T15:22:58.217Z,5.50
2023-02-28T15:27:04.780Z,5.45
2023-02-28T15:31:23.908Z,5.80
2023-02-28T15:35:31.354Z,5.82
2023-02-28T15:39:50.838Z,5.57
2023-02-28T15:44:28.043Z,5.75
2023-02-28T15:48:33.284Z,5.40
2023-02-28T15:52:41.749Z,5.38
2023-02-28T15:56:49.412Z,5.75
2023-02-28T16:01:06.027Z,5.47
2023-02-28T16:05:29.272Z,5.68
2023-02-28T16:09:35.259Z,5.35
2023-02-28T16:13:40.098Z,5.80
2023-02-28T16:17:43.258Z,5.18
2023-02-28T16:21:46.501Z,5.60
2023-02-28T16:25:49.540Z,5.68
2023-02-28T16:29:55.537Z,6.03
2023-02-28T16:33:59.048Z,6.38
2023-02-28T16:38:02.626Z,6.15
2023-02-28T16:42:05.897Z,5.80
2023-02-28T16:46:13.072Z,6.47
2023-02-28T16:50:19.451Z,6.15
2023-02-28T16:54:22.704Z,6.07
2023-02-28T16:58:27.470Z,6.78
2023-02-28T17:02:32.122Z,7.18
2023-02-28T17:06:35.217Z,6.75
2023-02-28T17:10:38.374Z,6.97
2023-02-28T17:14:41.419Z,7.75
2023-02-28T17:18:46.427Z,6.72
2023-02-28T17:22:49.421Z,7.03
2023-02-28T17:26:52.569Z,5.60
2023-02-28T17:30:55.805Z,6.35
2023-02-28T17:35:00.260Z,6.07
2023-02-28T17:39:03.714Z,6.70
2023-02-28T17:43:07.052Z,6.20
2023-02-28T17:47:14.027Z,6.47
2023-02-28T17:51:19.852Z,5.20
2023-02-28T17:55:22.837Z,5.13
2023-02-28T17:59:25.902Z,5.15
2023-02-28T18:03:29.128Z,5.05
2023-02-28T18:07:33.593Z,5.38
2023-02-28T18:11:44.765Z,5.57
2023-02-28T18:15:48.414Z,5.05
2023-02-28T18:19:52.473Z,5.28
2023-02-28T18:23:57.039Z,5.53
2023-02-28T18:28:00.034Z,6.30
2023-02-28T18:32:03.843Z,5.70
2023-02-28T18:36:07.792Z,6.53
2023-02-28T18:40:15.138Z,6.95
2023-02-28T18:44:20.387Z,6.72
2023-02-28T18:48:24.458Z,6.45
2023-02-28T18:52:27.438Z,6.35
2023-02-28T18:56:32.147Z,6.90
2023-02-28T19:00:35.858Z,7.07
2023-02-28T19:04:41.874Z,6.28
2023-02-28T19:08:44.898Z,7.05
2023-02-28T19:12:49.451Z,6.57
2023-02-28T19:16:52.871Z,7.00
2023-02-28T19:20:56.151Z,6.82
2023-02-28T19:24:59.151Z,7.53
2023-02-28T19:29:05.521Z,7.18
2023-02-28T19:33:08.550Z,7.25
2023-02-28T19:37:12.137Z,7.68
2023-02-28T19:41:16.969Z,6.88
2023-02-28T19:45:21.447Z,6.78
2023-02-28T19:49:26.009Z,7.13
2023-02-28T19:53:30.659Z,7.17
2023-02-28T19:57:33.743Z,8.43
2023-02-28T20:01:38.585Z,7.37
2023-02-28T20:05:41.557Z,8.95
2023-02-28T20:09:45.720Z,8.07
2023-02-28T20:13:48.766Z,8.43
2023-02-28T20:17:53.610Z,8.73
2023-02-28T20:21:57.210Z,8.25
2023-02-28T20:26:00.961Z,9.48
2023-02-28T20:30:04.556Z,10.53
2023-02-28T20:34:09.717Z,9.65
2023-02-28T20:38:13.253Z,9.50
2023-02-28T20:42:16.550Z,8.95
2023-02-28T20:46:19.656Z,8.57
2023-02-28T20:50:24.261Z,7.70
2023-02-28T20:54:28.690Z,8.63
2023-02-28T20:58:34.120Z,9.30
2023-02-28T21:02:37.267Z,8.57
2023-02-28T21:06:46.450Z,8.93
2023-02-28T21:10:49.414Z,9.57
2023-02-28T21:14:52.472Z,8.98
2023-02-28T21:18:55.625Z,8.47
2023-02-28T21:23:00.331Z,8.50
2023-02-28T21:27:03.338Z,8.70
2023-02-28T21:31:10.314Z,8.80
2023-02-28T21:35:13.361Z,8.37
2023-02-28T21:39:19.566Z,7.70
2023-02-28T21:43:22.741Z,8.83
2023-02-28T21:47:25.798Z,9.00
2023-02-28T21:51:31.401Z,10.00
2023-02-28T21:55:36.934Z,8.53
2023-02-28T21:59:39.898Z,9.50
2023-02-28T22:03:43.541Z,9.20
2023-02-28T22:07:46.522Z,9.17
2023-02-28T22:11:51.429Z,9.33
2023-02-28T22:15:54.414Z,9.63
2023-02-28T22:19:57.496Z,9.23
2023-02-28T22:24:01.106Z,9.10
2023-02-28T22:28:11.955Z,9.47
2023-02-28T22:32:15.594Z,9.50
2023-02-28T22:36:21.049Z,9.90
2023-02-28T22:40:24.417Z,9.60
2023-02-28T22:44:28.898Z,9.33
2023-02-28T22:48:32.304Z,10.20
2023-02-28T22:52:35.358Z,9.60
2023-02-28T22:56:38.347Z,10.47
2023-02-28T23:00:42.913Z,9.67
2023-02-28T23:04:45.932Z,9.73
2023-02-28T23:08:49.596Z,10.10
2023-02-28T23:12:53.294Z,9.77
2023-02-28T23:16:57.734Z,10.27
2023-02-28T23:21:00.920Z,9.93
2023-02-28T23:25:04.746Z,9.17
2023-02-28T23:29:07.780Z,9.40
2023-02-28T23:33:12.295Z,9.73
2023-02-28T23:37:15.299Z,10.30
2023-02-28T23:41:19.845Z,9.17
2023-02-28T23:45:22.849Z,10.40
2023-02-28T23:49:27.475Z,9.23
2023-02-28T23:53:33.848Z,9.00
2023-02-28T23:57:36.902Z,10.07
